sensor_id;sensor_type;location;lat;lon;timestamp;pressure;altitude;pressure_sealevel;temperature;humidity
80733;BME280;70130;44.534;18.678;2023-11-21T00:01:06;98544.91;;;5.56;96.00
80733;BME280;70130;44.534;18.678;2023-11-21T00:03:51;98540.97;;;5.54;95.46
80733;BME280;70130;44.534;18.678;2023-11-21T00:06:35;98544.22;;;5.51;95.80
80733;BME280;70130;44.534;18.678;2023-11-21T00:09:14;98528.00;;;5.39;96.00
80733;BME280;70130;44.534;18.678;2023-11-21T00:11:43;98546.22;;;5.45;96.25
80733;BME280;70130;44.534;18.678;2023-11-21T00:17:46;98538.78;;;5.56;96.13
80733;BME280;70130;44.534;18.678;2023-11-21T00:20:12;98528.09;;;5.47;96.77
80733;BME280;70130;44.534;18.678;2023-11-21T00:22:41;98540.97;;;5.54;97.09
80733;BME280;70130;44.534;18.678;2023-11-21T00:25:07;98537.22;;;5.55;97.04
80733;BME280;70130;44.534;18.678;2023-11-21T00:27:41;98536.13;;;5.56;97.07
80733;BME280;70130;44.534;18.678;2023-11-21T00:30:10;98535.34;;;5.55;97.43
80733;BME280;70130;44.534;18.678;2023-11-21T00:32:37;98532.97;;;5.54;97.57
80733;BME280;70130;44.534;18.678;2023-11-21T00:35:06;98515.66;;;5.43;97.98
80733;BME280;70130;44.534;18.678;2023-11-21T00:37:32;98527.97;;;5.52;97.91
80733;BME280;70130;44.534;18.678;2023-11-21T00:40:01;98526.88;;;5.53;98.28
80733;BME280;70130;44.534;18.678;2023-11-21T00:42:59;98525.50;;;5.56;98.51
80733;BME280;70130;44.534;18.678;2023-11-21T00:45:27;98502.84;;;5.45;98.00
80733;BME280;70130;44.534;18.678;2023-11-21T00:47:53;98497.34;;;5.41;98.11
80733;BME280;70130;44.534;18.678;2023-11-21T00:50:37;98507.56;;;5.48;97.66
80733;BME280;70130;44.534;18.678;2023-11-21T00:53:08;98488.53;;;5.32;97.81
80733;BME280;70130;44.534;18.678;2023-11-21T00:55:37;98505.56;;;5.31;97.95
80733;BME280;70130;44.534;18.678;2023-11-21T00:58:08;98485.88;;;5.18;98.32
80733;BME280;70130;44.534;18.678;2023-11-21T01:00:40;98488.75;;;5.22;98.35
80733;BME280;70130;44.534;18.678;2023-11-21T01:03:09;98488.94;;;5.26;98.33
80733;BME280;70130;44.534;18.678;2023-11-21T01:05:35;98490.56;;;5.13;98.01
80733;BME280;70130;44.534;18.678;2023-11-21T01:08:06;98483.31;;;4.91;98.43
80733;BME280;70130;44.534;18.678;2023-11-21T01:10:35;98494.31;;;4.98;98.91
80733;BME280;70130;44.534;18.678;2023-11-21T01:13:01;98481.00;;;4.98;98.91
80733;BME280;70130;44.534;18.678;2023-11-21T01:15:30;98481.91;;;5.07;98.98
80733;BME280;70130;44.534;18.678;2023-11-21T01:17:55;98480.31;;;5.06;98.83
80733;BME280;70130;44.534;18.678;2023-11-21T01:20:24;98477.94;;;5.05;98.48
80733;BME280;70130;44.534;18.678;2023-11-21T01:22:49;98444.06;;;4.74;98.42
80733;BME280;70130;44.534;18.678;2023-11-21T01:25:34;98474.03;;;5.02;98.64
80733;BME280;70130;44.534;18.678;2023-11-21T01:28:02;98458.19;;;4.97;98.87
80733;BME280;70130;44.534;18.678;2023-11-21T01:30:34;98463.09;;;5.04;98.51
80733;BME280;70130;44.534;18.678;2023-11-21T01:33:04;98467.72;;;4.98;98.74
80733;BME280;70130;44.534;18.678;2023-11-21T01:35:33;98458.09;;;5.02;98.61
80733;BME280;70130;44.534;18.678;2023-11-21T01:37:59;98464.38;;;5.06;98.60
80733;BME280;70130;44.534;18.678;2023-11-21T01:40:28;98450.47;;;5.09;98.61
80733;BME280;70130;44.534;18.678;2023-11-21T01:42:57;98455.78;;;5.09;98.57
80733;BME280;70130;44.534;18.678;2023-11-21T01:45:41;98452.03;;;5.10;98.56
80733;BME280;70130;44.534;18.678;2023-11-21T01:48:10;98445.75;;;5.06;98.65
80733;BME280;70130;44.534;18.678;2023-11-21T01:50:35;98450.16;;;5.11;98.59
80733;BME280;70130;44.534;18.678;2023-11-21T01:53:05;98445.88;;;5.01;98.65
80733;BME280;70130;44.534;18.678;2023-11-21T01:55:35;98448.00;;;5.13;98.81
80733;BME280;70130;44.534;18.678;2023-11-21T01:58:13;98438.13;;;5.13;98.77
80733;BME280;70130;44.534;18.678;2023-11-21T02:00:42;98408.56;;;4.93;98.77
80733;BME280;70130;44.534;18.678;2023-11-21T02:03:11;98427.19;;;5.15;98.78
80733;BME280;70130;44.534;18.678;2023-11-21T02:05:43;98425.22;;;5.20;98.86
80733;BME280;70130;44.534;18.678;2023-11-21T02:08:12;98407.00;;;5.14;99.14
80733;BME280;70130;44.534;18.678;2023-11-21T02:10:37;98411.63;;;5.22;99.65
80733;BME280;70130;44.534;18.678;2023-11-21T02:13:06;98409.63;;;5.28;99.18
80733;BME280;70130;44.534;18.678;2023-11-21T02:15:31;98413.84;;;5.29;99.41
80733;BME280;70130;44.534;18.678;2023-11-21T02:18:00;98400.53;;;5.29;99.52
80733;BME280;70130;44.534;18.678;2023-11-21T02:20:29;98408.88;;;5.36;99.61
80733;BME280;70130;44.534;18.678;2023-11-21T02:22:56;98396.38;;;5.36;99.67
80733;BME280;70130;44.534;18.678;2023-11-21T02:25:32;98396.66;;;5.35;99.21
80733;BME280;70130;44.534;18.678;2023-11-21T02:28:02;98395.28;;;5.37;98.96
80733;BME280;70130;44.534;18.678;2023-11-21T02:30:32;98384.44;;;5.34;98.88
80733;BME280;70130;44.534;18.678;2023-11-21T02:33:01;98396.50;;;5.31;98.63
80733;BME280;70130;44.534;18.678;2023-11-21T02:35:30;98381.94;;;5.06;98.84
80733;BME280;70130;44.534;18.678;2023-11-21T02:37:57;98384.66;;;5.15;98.90
80733;BME280;70130;44.534;18.678;2023-11-21T02:43:27;98377.94;;;5.17;98.32
80733;BME280;70130;44.534;18.678;2023-11-21T02:45:55;98372.25;;;5.10;98.29
80733;BME280;70130;44.534;18.678;2023-11-21T02:48:21;98373.84;;;5.11;98.36
80733;BME280;70130;44.534;18.678;2023-11-21T02:50:49;98371.34;;;5.15;98.24
80733;BME280;70130;44.534;18.678;2023-11-21T02:53:15;98364.88;;;5.07;98.01
80733;BME280;70130;44.534;18.678;2023-11-21T02:55:44;98356.91;;;5.07;97.61
80733;BME280;70130;44.534;18.678;2023-11-21T02:58:13;98366.19;;;5.18;97.86
80733;BME280;70130;44.534;18.678;2023-11-21T03:00:44;98364.03;;;5.20;97.67
80733;BME280;70130;44.534;18.678;2023-11-21T03:03:13;98370.94;;;5.21;97.67
80733;BME280;70130;44.534;18.678;2023-11-21T03:05:42;98368.56;;;5.20;97.70
80733;BME280;70130;44.534;18.678;2023-11-21T03:08:20;98356.19;;;5.15;97.30
80733;BME280;70130;44.534;18.678;2023-11-21T03:10:50;98374.53;;;5.26;97.81
80733;BME280;70130;44.534;18.678;2023-11-21T03:13:18;98371.22;;;5.20;97.90
80733;BME280;70130;44.534;18.678;2023-11-21T03:15:44;98365.00;;;5.25;97.89
80733;BME280;70130;44.534;18.678;2023-11-21T03:18:13;98360.50;;;5.34;98.04
80733;BME280;70130;44.534;18.678;2023-11-21T03:20:43;98353.94;;;5.31;98.40
80733;BME280;70130;44.534;18.678;2023-11-21T03:23:11;98353.63;;;5.33;98.18
80733;BME280;70130;44.534;18.678;2023-11-21T03:25:37;98354.72;;;5.32;98.17
80733;BME280;70130;44.534;18.678;2023-11-21T03:28:06;98350.47;;;5.31;98.34
80733;BME280;70130;44.534;18.678;2023-11-21T03:30:54;98362.91;;;5.44;98.19
80733;BME280;70130;44.534;18.678;2023-11-21T03:33:19;98348.03;;;5.43;98.33
80733;BME280;70130;44.534;18.678;2023-11-21T03:35:48;98358.06;;;5.46;98.42
80733;BME280;70130;44.534;18.678;2023-11-21T03:38:15;98351.19;;;5.45;98.35
80733;BME280;70130;44.534;18.678;2023-11-21T03:40:44;98353.72;;;5.50;98.56
80733;BME280;70130;44.534;18.678;2023-11-21T03:43:13;98349.19;;;5.50;98.77
80733;BME280;70130;44.534;18.678;2023-11-21T03:45:42;98338.25;;;5.52;98.91
80733;BME280;70130;44.534;18.678;2023-11-21T03:48:13;98332.91;;;5.52;99.01
80733;BME280;70130;44.534;18.678;2023-11-21T03:50:41;98317.81;;;5.39;99.08
80733;BME280;70130;44.534;18.678;2023-11-21T03:53:07;98333.69;;;5.52;99.10
80733;BME280;70130;44.534;18.678;2023-11-21T03:55:35;98322.72;;;5.54;99.27
80733;BME280;70130;44.534;18.678;2023-11-21T03:58:06;98324.78;;;5.57;99.63
80733;BME280;70130;44.534;18.678;2023-11-21T04:00:37;98324.00;;;5.56;100.00
80733;BME280;70130;44.534;18.678;2023-11-21T04:03:05;98315.69;;;5.58;100.00
80733;BME280;70130;44.534;18.678;2023-11-21T04:05:37;98317.59;;;5.57;100.00
80733;BME280;70130;44.534;18.678;2023-11-21T04:08:08;98311.00;;;5.55;100.00
80733;BME280;70130;44.534;18.678;2023-11-21T04:10:37;98311.31;;;5.53;100.00
80733;BME280;70130;44.534;18.678;2023-11-21T04:13:07;98314.75;;;5.54;100.00
80733;BME280;70130;44.534;18.678;2023-11-21T04:15:33;98312.72;;;5.51;100.00
80733;BME280;70130;44.534;18.678;2023-11-21T04:18:02;98305.03;;;5.49;100.00
80733;BME280;70130;44.534;18.678;2023-11-21T04:20:28;98309.44;;;5.54;100.00
80733;BME280;70130;44.534;18.678;2023-11-21T04:22:56;98311.50;;;5.57;100.00
80733;BME280;70130;44.534;18.678;2023-11-21T04:25:28;98304.44;;;5.52;100.00
80733;BME280;70130;44.534;18.678;2023-11-21T04:28:00;98313.16;;;5.53;100.00
80733;BME280;70130;44.534;18.678;2023-11-21T04:30:28;98305.06;;;5.58;100.00
80733;BME280;70130;44.534;18.678;2023-11-21T04:33:19;98305.06;;;5.58;100.00
80733;BME280;70130;44.534;18.678;2023-11-21T04:35:47;98291.00;;;5.57;100.00
80733;BME280;70130;44.534;18.678;2023-11-21T04:38:13;98286.75;;;5.56;100.00
80733;BME280;70130;44.534;18.678;2023-11-21T04:40:51;98289.72;;;5.55;100.00
80733;BME280;70130;44.534;18.678;2023-11-21T04:43:20;98271.38;;;5.53;100.00
80733;BME280;70130;44.534;18.678;2023-11-21T04:45:46;98275.63;;;5.63;100.00
80733;BME280;70130;44.534;18.678;2023-11-21T04:48:17;98267.78;;;5.58;100.00
80733;BME280;70130;44.534;18.678;2023-11-21T04:51:14;98283.97;;;5.70;100.00
80733;BME280;70130;44.534;18.678;2023-11-21T04:54:01;98278.34;;;5.72;100.00
80733;BME280;70130;44.534;18.678;2023-11-21T04:56:27;98267.22;;;5.70;100.00
80733;BME280;70130;44.534;18.678;2023-11-21T04:58:53;98276.47;;;5.72;100.00
80733;BME280;70130;44.534;18.678;2023-11-21T05:01:22;98275.19;;;5.70;100.00
80733;BME280;70130;44.534;18.678;2023-11-21T05:03:54;98269.09;;;5.69;100.00
80733;BME280;70130;44.534;18.678;2023-11-21T05:06:19;98271.59;;;5.74;100.00
80733;BME280;70130;44.534;18.678;2023-11-21T05:08:45;98261.59;;;5.71;100.00
80733;BME280;70130;44.534;18.678;2023-11-21T05:11:25;98254.34;;;5.63;100.00
80733;BME280;70130;44.534;18.678;2023-11-21T05:13:53;98264.84;;;5.68;100.00
80733;BME280;70130;44.534;18.678;2023-11-21T05:16:27;98277.72;;;5.75;100.00
80733;BME280;70130;44.534;18.678;2023-11-21T05:18:53;98257.97;;;5.67;100.00
80733;BME280;70130;44.534;18.678;2023-11-21T05:21:18;98275.22;;;5.78;100.00
80733;BME280;70130;44.534;18.678;2023-11-21T05:23:55;98284.47;;;5.81;100.00
80733;BME280;70130;44.534;18.678;2023-11-21T05:26:27;98279.72;;;5.69;100.00
80733;BME280;70130;44.534;18.678;2023-11-21T05:28:53;98295.91;;;5.81;100.00
80733;BME280;70130;44.534;18.678;2023-11-21T05:31:18;98306.06;;;5.79;100.00
80733;BME280;70130;44.534;18.678;2023-11-21T05:33:44;98304.69;;;5.82;100.00
80733;BME280;70130;44.534;18.678;2023-11-21T05:36:10;98300.91;;;5.83;100.00
80733;BME280;70130;44.534;18.678;2023-11-21T05:38:54;98304.44;;;5.92;100.00
80733;BME280;70130;44.534;18.678;2023-11-21T05:41:20;98313.81;;;5.98;100.00
80733;BME280;70130;44.534;18.678;2023-11-21T05:43:51;98315.09;;;6.00;100.00
80733;BME280;70130;44.534;18.678;2023-11-21T05:46:22;98304.59;;;5.95;100.00
80733;BME280;70130;44.534;18.678;2023-11-21T05:48:48;98299.91;;;6.01;100.00
80733;BME280;70130;44.534;18.678;2023-11-21T05:51:13;98306.19;;;6.05;100.00
80733;BME280;70130;44.534;18.678;2023-11-21T05:53:39;98305.88;;;6.06;100.00
80733;BME280;70130;44.534;18.678;2023-11-21T05:56:04;98305.88;;;6.06;100.00
80733;BME280;70130;44.534;18.678;2023-11-21T05:58:30;98304.75;;;6.07;100.00
80733;BME280;70130;44.534;18.678;2023-11-21T06:00:56;98273.56;;;5.91;100.00
80733;BME280;70130;44.534;18.678;2023-11-21T06:03:22;98309.00;;;6.08;100.00
80733;BME280;70130;44.534;18.678;2023-11-21T06:05:51;98292.06;;;6.04;100.00
80733;BME280;70130;44.534;18.678;2023-11-21T06:08:23;98305.09;;;6.15;100.00
80733;BME280;70130;44.534;18.678;2023-11-21T06:10:48;98299.78;;;6.15;100.00
80733;BME280;70130;44.534;18.678;2023-11-21T06:13:20;98304.63;;;6.13;100.00
80733;BME280;70130;44.534;18.678;2023-11-21T06:15:50;98301.50;;;6.11;100.00
80733;BME280;70130;44.534;18.678;2023-11-21T06:18:16;98306.19;;;6.14;100.00
80733;BME280;70130;44.534;18.678;2023-11-21T06:20:45;98297.75;;;6.12;100.00
80733;BME280;70130;44.534;18.678;2023-11-21T06:23:11;98304.81;;;6.16;100.00
80733;BME280;70130;44.534;18.678;2023-11-21T06:25:37;98300.06;;;6.13;100.00
80733;BME280;70130;44.534;18.678;2023-11-21T06:28:03;98305.41;;;6.22;100.00
80733;BME280;70130;44.534;18.678;2023-11-21T06:30:29;98305.59;;;6.25;100.00
80733;BME280;70130;44.534;18.678;2023-11-21T06:32:54;98300.91;;;6.31;100.00
80733;BME280;70130;44.534;18.678;2023-11-21T06:35:21;98299.47;;;6.33;100.00
80733;BME280;70130;44.534;18.678;2023-11-21T06:37:47;98307.81;;;6.40;100.00
80733;BME280;70130;44.534;18.678;2023-11-21T06:40:13;98306.88;;;6.45;100.00
80733;BME280;70130;44.534;18.678;2023-11-21T06:42:43;98301.84;;;6.43;100.00
80733;BME280;70130;44.534;18.678;2023-11-21T06:45:10;98296.22;;;6.45;100.00
80733;BME280;70130;44.534;18.678;2023-11-21T06:47:38;98292.91;;;6.48;100.00
80733;BME280;70130;44.534;18.678;2023-11-21T06:50:04;98295.72;;;6.51;100.00
80733;BME280;70130;44.534;18.678;2023-11-21T06:52:30;98285.69;;;6.48;100.00
80733;BME280;70130;44.534;18.678;2023-11-21T06:54:57;98290.72;;;6.50;100.00
80733;BME280;70130;44.534;18.678;2023-11-21T06:57:25;98294.16;;;6.50;100.00
80733;BME280;70130;44.534;18.678;2023-11-21T06:59:50;98296.50;;;6.52;100.00
80733;BME280;70130;44.534;18.678;2023-11-21T07:02:16;98279.72;;;6.43;100.00
80733;BME280;70130;44.534;18.678;2023-11-21T07:04:46;98287.25;;;6.49;100.00
80733;BME280;70130;44.534;18.678;2023-11-21T07:07:12;98292.59;;;6.58;100.00
80733;BME280;70130;44.534;18.678;2023-11-21T07:09:38;98296.38;;;6.66;100.00
80733;BME280;70130;44.534;18.678;2023-11-21T07:12:06;98291.97;;;6.70;100.00
80733;BME280;70130;44.534;18.678;2023-11-21T07:14:35;98281.59;;;6.77;100.00
80733;BME280;70130;44.534;18.678;2023-11-21T07:17:02;98286.78;;;6.90;100.00
80733;BME280;70130;44.534;18.678;2023-11-21T07:19:28;98295.06;;;6.98;100.00
80733;BME280;70130;44.534;18.678;2023-11-21T07:21:54;98289.56;;;7.03;100.00
80733;BME280;70130;44.534;18.678;2023-11-21T07:24:21;98287.69;;;7.03;100.00
80733;BME280;70130;44.534;18.678;2023-11-21T07:26:48;98286.88;;;7.11;100.00
80733;BME280;70130;44.534;18.678;2023-11-21T07:29:14;98294.56;;;7.13;100.00
80733;BME280;70130;44.534;18.678;2023-11-21T07:31:40;98272.47;;;7.04;100.00
80733;BME280;70130;44.534;18.678;2023-11-21T07:34:06;98287.81;;;7.15;100.00
80733;BME280;70130;44.534;18.678;2023-11-21T07:36:33;98275.13;;;7.04;100.00
80733;BME280;70130;44.534;18.678;2023-11-21T07:38:59;98269.47;;;6.97;100.00
80733;BME280;70130;44.534;18.678;2023-11-21T07:41:24;98279.53;;;6.91;100.00
80733;BME280;70130;44.534;18.678;2023-11-21T07:43:50;98286.91;;;6.94;100.00
80733;BME280;70130;44.534;18.678;2023-11-21T07:46:16;98281.59;;;6.85;100.00
80733;BME280;70130;44.534;18.678;2023-11-21T07:48:42;98272.81;;;6.68;100.00
80733;BME280;70130;44.534;18.678;2023-11-21T07:51:09;98277.06;;;6.69;100.00
80733;BME280;70130;44.534;18.678;2023-11-21T07:53:36;98278.78;;;6.65;100.00
80733;BME280;70130;44.534;18.678;2023-11-21T07:56:09;98278.16;;;6.59;100.00
80733;BME280;70130;44.534;18.678;2023-11-21T07:58:35;98250.75;;;6.50;100.00
80733;BME280;70130;44.534;18.678;2023-11-21T08:01:04;98254.66;;;6.53;100.00
80733;BME280;70130;44.534;18.678;2023-11-21T08:03:30;98253.69;;;6.57;100.00
80733;BME280;70130;44.534;18.678;2023-11-21T08:05:57;98247.28;;;6.58;100.00
80733;BME280;70130;44.534;18.678;2023-11-21T08:08:23;98273.28;;;6.78;100.00
80733;BME280;70130;44.534;18.678;2023-11-21T08:10:50;98261.53;;;6.79;100.00
80733;BME280;70130;44.534;18.678;2023-11-21T08:13:26;98247.88;;;6.72;100.00
80733;BME280;70130;44.534;18.678;2023-11-21T08:15:55;98270.78;;;6.90;100.00
80733;BME280;70130;44.534;18.678;2023-11-21T08:18:22;98263.22;;;6.92;100.00
80733;BME280;70130;44.534;18.678;2023-11-21T08:20:48;98274.19;;;7.00;100.00
80733;BME280;70130;44.534;18.678;2023-11-21T08:23:16;98258.66;;;6.93;100.00
80733;BME280;70130;44.534;18.678;2023-11-21T08:25:43;98268.84;;;7.08;100.00
80733;BME280;70130;44.534;18.678;2023-11-21T08:28:09;98264.59;;;7.07;100.00
80733;BME280;70130;44.534;18.678;2023-11-21T08:30:36;98274.16;;;7.08;100.00
80733;BME280;70130;44.534;18.678;2023-11-21T08:33:04;98245.19;;;6.89;100.00
80733;BME280;70130;44.534;18.678;2023-11-21T08:35:31;98271.38;;;7.05;100.00
80733;BME280;70130;44.534;18.678;2023-11-21T08:37:56;98278.41;;;7.09;100.00
80733;BME280;70130;44.534;18.678;2023-11-21T08:40:22;98253.81;;;6.86;100.00
80733;BME280;70130;44.534;18.678;2023-11-21T08:42:49;98264.94;;;6.97;100.00
80733;BME280;70130;44.534;18.678;2023-11-21T08:45:15;98261.34;;;6.93;100.00
80733;BME280;70130;44.534;18.678;2023-11-21T08:47:43;98280.59;;;7.07;100.00
80733;BME280;70130;44.534;18.678;2023-11-21T08:50:13;98259.47;;;6.93;100.00
80733;BME280;70130;44.534;18.678;2023-11-21T08:52:40;98280.28;;;7.09;100.00
80733;BME280;70130;44.534;18.678;2023-11-21T08:55:07;98252.56;;;6.92;100.00
80733;BME280;70130;44.534;18.678;2023-11-21T08:57:44;98277.50;;;7.05;100.00
80733;BME280;70130;44.534;18.678;2023-11-21T09:00:10;98280.75;;;7.11;100.00
80733;BME280;70130;44.534;18.678;2023-11-21T09:02:41;98276.97;;;7.12;100.00
80733;BME280;70130;44.534;18.678;2023-11-21T09:05:10;98277.47;;;7.14;100.00
80733;BME280;70130;44.534;18.678;2023-11-21T09:07:37;98262.25;;;7.06;100.00
80733;BME280;70130;44.534;18.678;2023-11-21T09:10:04;98272.13;;;7.14;100.00
80733;BME280;70130;44.534;18.678;2023-11-21T09:12:33;98258.94;;;7.09;100.00
80733;BME280;70130;44.534;18.678;2023-11-21T09:15:02;98258.78;;;7.14;100.00
80733;BME280;70130;44.534;18.678;2023-11-21T09:17:32;98255.63;;;7.12;100.00
80733;BME280;70130;44.534;18.678;2023-11-21T09:19:58;98240.13;;;7.05;100.00
80733;BME280;70130;44.534;18.678;2023-11-21T09:22:24;98246.84;;;7.11;100.00
80733;BME280;70130;44.534;18.678;2023-11-21T09:24:51;98241.84;;;7.01;100.00
80733;BME280;70130;44.534;18.678;2023-11-21T09:27:17;98275.41;;;7.19;100.00
80733;BME280;70130;44.534;18.678;2023-11-21T09:29:43;98268.19;;;7.20;100.00
80733;BME280;70130;44.534;18.678;2023-11-21T09:32:08;98265.84;;;7.18;100.00
80733;BME280;70130;44.534;18.678;2023-11-21T09:34:39;98255.13;;;7.27;100.00
80733;BME280;70130;44.534;18.678;2023-11-21T09:37:05;98250.88;;;7.34;100.00
80733;BME280;70130;44.534;18.678;2023-11-21T09:39:32;98254.91;;;7.41;100.00
80733;BME280;70130;44.534;18.678;2023-11-21T09:42:10;98230.84;;;7.20;100.00
80733;BME280;70130;44.534;18.678;2023-11-21T09:44:53;98234.56;;;7.27;100.00
80733;BME280;70130;44.534;18.678;2023-11-21T09:47:24;98215.41;;;7.25;100.00
80733;BME280;70130;44.534;18.678;2023-11-21T09:49:52;98211.81;;;7.30;100.00
80733;BME280;70130;44.534;18.678;2023-11-21T09:52:26;98221.34;;;7.31;100.00
80733;BME280;70130;44.534;18.678;2023-11-21T09:54:52;98224.84;;;7.23;100.00
80733;BME280;70130;44.534;18.678;2023-11-21T09:57:23;98209.63;;;7.23;100.00
80733;BME280;70130;44.534;18.678;2023-11-21T09:59:53;98208.34;;;7.21;100.00
80733;BME280;70130;44.534;18.678;2023-11-21T10:02:28;98211.31;;;7.28;100.00
80733;BME280;70130;44.534;18.678;2023-11-21T10:05:00;98198.47;;;7.21;100.00
80733;BME280;70130;44.534;18.678;2023-11-21T10:07:26;98202.22;;;7.29;100.00
80733;BME280;70130;44.534;18.678;2023-11-21T10:09:52;98189.66;;;7.29;100.00
80733;BME280;70130;44.534;18.678;2023-11-21T10:12:19;98188.53;;;7.30;100.00
80733;BME280;70130;44.534;18.678;2023-11-21T10:14:48;98171.44;;;7.31;100.00
80733;BME280;70130;44.534;18.678;2023-11-21T10:17:15;98174.03;;;7.40;100.00
80733;BME280;70130;44.534;18.678;2023-11-21T10:19:46;98165.22;;;7.48;100.00
80733;BME280;70130;44.534;18.678;2023-11-21T10:22:14;98177.91;;;7.51;100.00
80733;BME280;70130;44.534;18.678;2023-11-21T10:24:40;98155.09;;;7.33;100.00
80733;BME280;70130;44.534;18.678;2023-11-21T10:27:08;98158.88;;;7.32;100.00
80733;BME280;70130;44.534;18.678;2023-11-21T10:29:33;98157.47;;;7.26;100.00
80733;BME280;70130;44.534;18.678;2023-11-21T10:32:04;98133.19;;;7.19;100.00
80733;BME280;70130;44.534;18.678;2023-11-21T10:34:31;98165.19;;;7.27;100.00
80733;BME280;70130;44.534;18.678;2023-11-21T10:36:57;98166.78;;;7.20;100.00
80733;BME280;70130;44.534;18.678;2023-11-21T10:39:24;98158.69;;;7.08;100.00
80733;BME280;70130;44.534;18.678;2023-11-21T10:41:54;98174.19;;;7.14;100.00
80733;BME280;70130;44.534;18.678;2023-11-21T10:44:22;98157.75;;;7.04;100.00
80733;BME280;70130;44.534;18.678;2023-11-21T10:46:51;98174.19;;;7.14;100.00
80733;BME280;70130;44.534;18.678;2023-11-21T10:49:21;98172.75;;;7.17;100.00
80733;BME280;70130;44.534;18.678;2023-11-21T10:51:47;98167.28;;;7.13;100.00
80733;BME280;70130;44.534;18.678;2023-11-21T10:54:20;98185.00;;;7.18;100.00
80733;BME280;70130;44.534;18.678;2023-11-21T10:56:49;98190.03;;;7.11;100.00
80733;BME280;70130;44.534;18.678;2023-11-21T10:59:17;98179.56;;;6.97;100.00
80733;BME280;70130;44.534;18.678;2023-11-21T11:01:46;98176.94;;;6.88;100.00
80733;BME280;70130;44.534;18.678;2023-11-21T11:04:13;98179.47;;;6.85;100.00
80733;BME280;70130;44.534;18.678;2023-11-21T11:06:43;98181.66;;;6.83;100.00
80733;BME280;70130;44.534;18.678;2023-11-21T11:09:13;98197.03;;;6.86;100.00
80733;BME280;70130;44.534;18.678;2023-11-21T11:11:42;98210.06;;;6.79;100.00
80733;BME280;70130;44.534;18.678;2023-11-21T11:14:13;98203.66;;;6.80;100.00
80733;BME280;70130;44.534;18.678;2023-11-21T11:16:40;98199.56;;;6.82;100.00
80733;BME280;70130;44.534;18.678;2023-11-21T11:19:10;98193.78;;;6.80;100.00
80733;BME280;70130;44.534;18.678;2023-11-21T11:24:38;98183.41;;;6.79;100.00
80733;BME280;70130;44.534;18.678;2023-11-21T11:27:34;98205.16;;;6.98;100.00
80733;BME280;70130;44.534;18.678;2023-11-21T11:36:02;98203.41;;;7.02;100.00
80733;BME280;70130;44.534;18.678;2023-11-21T11:38:33;98204.69;;;7.05;100.00
80733;BME280;70130;44.534;18.678;2023-11-21T11:41:02;98193.66;;;7.06;100.00
80733;BME280;70130;44.534;18.678;2023-11-21T11:43:32;98197.59;;;7.09;100.00
80733;BME280;70130;44.534;18.678;2023-11-21T11:46:10;98197.59;;;7.09;100.00
80733;BME280;70130;44.534;18.678;2023-11-21T11:48:40;98194.94;;;7.09;100.00
80733;BME280;70130;44.534;18.678;2023-11-21T11:51:12;98212.16;;;7.11;100.00
80733;BME280;70130;44.534;18.678;2023-11-21T11:53:43;98209.06;;;7.01;100.00
80733;BME280;70130;44.534;18.678;2023-11-21T11:56:28;98213.28;;;7.02;100.00
80733;BME280;70130;44.534;18.678;2023-11-21T11:58:58;98222.09;;;7.02;100.00
80733;BME280;70130;44.534;18.678;2023-11-21T12:01:26;98217.88;;;6.92;100.00
80733;BME280;70130;44.534;18.678;2023-11-21T12:06:36;98221.00;;;7.03;100.00
80733;BME280;70130;44.534;18.678;2023-11-21T12:09:02;98218.97;;;7.00;100.00
80733;BME280;70130;44.534;18.678;2023-11-21T12:11:32;98220.38;;;6.98;100.00
80733;BME280;70130;44.534;18.678;2023-11-21T12:13:58;98223.03;;;6.98;100.00
80733;BME280;70130;44.534;18.678;2023-11-21T12:16:26;98217.25;;;6.87;100.00
80733;BME280;70130;44.534;18.678;2023-11-21T12:18:54;98223.53;;;6.91;100.00
80733;BME280;70130;44.534;18.678;2023-11-21T12:21:20;98226.22;;;6.82;100.00
80733;BME280;70130;44.534;18.678;2023-11-21T12:23:47;98218.69;;;6.84;100.00
80733;BME280;70130;44.534;18.678;2023-11-21T12:26:13;98223.06;;;6.89;100.00
80733;BME280;70130;44.534;18.678;2023-11-21T12:28:39;98224.16;;;6.88;100.00
80733;BME280;70130;44.534;18.678;2023-11-21T12:31:05;98222.94;;;6.85;100.00
80733;BME280;70130;44.534;18.678;2023-11-21T12:33:33;98226.53;;;6.89;100.00
80733;BME280;70130;44.534;18.678;2023-11-21T12:35:59;98234.19;;;6.91;100.00
80733;BME280;70130;44.534;18.678;2023-11-21T12:38:25;98226.53;;;6.89;100.00
80733;BME280;70130;44.534;18.678;2023-11-21T12:40:51;98233.88;;;6.92;100.00
80733;BME280;70130;44.534;18.678;2023-11-21T12:43:19;98221.38;;;6.84;100.00
80733;BME280;70130;44.534;18.678;2023-11-21T12:45:46;98213.06;;;6.77;100.00
80733;BME280;70130;44.534;18.678;2023-11-21T12:48:11;98215.41;;;6.79;100.00
80733;BME280;70130;44.534;18.678;2023-11-21T12:50:38;98220.56;;;6.84;100.00
80733;BME280;70130;44.534;18.678;2023-11-21T12:53:08;98213.81;;;6.86;100.00
80733;BME280;70130;44.534;18.678;2023-11-21T12:55:34;98216.34;;;6.83;100.00
80733;BME280;70130;44.534;18.678;2023-11-21T12:58:05;98208.19;;;6.79;100.00
80733;BME280;70130;44.534;18.678;2023-11-21T13:00:36;98214.16;;;6.85;100.00
80733;BME280;70130;44.534;18.678;2023-11-21T13:03:07;98217.25;;;6.87;100.00
80733;BME280;70130;44.534;18.678;2023-11-21T13:05:34;98216.34;;;6.83;100.00
80733;BME280;70130;44.534;18.678;2023-11-21T13:08:02;98215.28;;;6.75;100.00
80733;BME280;70130;44.534;18.678;2023-11-21T13:10:31;98225.13;;;6.83;100.00
80733;BME280;70130;44.534;18.678;2023-11-21T13:13:01;98220.25;;;6.85;100.00
80733;BME280;70130;44.534;18.678;2023-11-21T13:15:31;98199.44;;;6.70;100.00
80733;BME280;70130;44.534;18.678;2023-11-21T13:17:58;98219.31;;;6.81;100.00
80733;BME280;70130;44.534;18.678;2023-11-21T13:20:25;98227.63;;;6.88;100.00